sensor_id;sensor_type;location;lat;lon;timestamp;pressure;altitude;pressure_sealevel;temperature;humidity
80414;BME280;69758;52.580;13.068;2023-09-30T00:00:14;101814.45;;;22.06;34.75
80414;BME280;69758;52.580;13.068;2023-09-30T00:02:39;101815.55;;;22.00;34.69
80414;BME280;69758;52.580;13.068;2023-09-30T00:05:05;101822.38;;;21.98;34.19
80414;BME280;69758;52.580;13.068;2023-09-30T00:07:30;101830.24;;;22.03;33.97
80414;BME280;69758;52.580;13.068;2023-09-30T00:09:55;101838.70;;;21.89;34.28
80414;BME280;69758;52.580;13.068;2023-09-30T00:12:20;101838.34;;;21.84;34.54
80414;BME280;69758;52.580;13.068;2023-09-30T00:14:45;101846.87;;;21.25;34.61
80414;BME280;69758;52.580;13.068;2023-09-30T00:17:11;101853.84;;;21.63;34.44
80414;BME280;69758;52.580;13.068;2023-09-30T00:19:36;101856.07;;;21.63;34.59
80414;BME280;69758;52.580;13.068;2023-09-30T00:22:01;101856.02;;;21.56;34.41
80414;BME280;69758;52.580;13.068;2023-09-30T00:24:26;101863.13;;;21.33;34.25
80414;BME280;69758;52.580;13.068;2023-09-30T00:26:51;101862.47;;;21.34;34.32
80414;BME280;69758;52.580;13.068;2023-09-30T00:29:17;101869.18;;;21.20;34.15
80414;BME280;69758;52.580;13.068;2023-09-30T00:31:42;101871.37;;;21.19;34.21
80414;BME280;69758;52.580;13.068;2023-09-30T00:34:07;101866.99;;;21.05;34.19
80414;BME280;69758;52.580;13.068;2023-09-30T00:36:32;101875.28;;;21.28;34.26
80414;BME280;69758;52.580;13.068;2023-09-30T00:38:57;101877.98;;;21.35;34.00
80414;BME280;69758;52.580;13.068;2023-09-30T00:41:22;101882.29;;;21.41;33.94
80414;BME280;69758;52.580;13.068;2023-09-30T00:43:47;101885.38;;;21.21;33.65
80414;BME280;69758;52.580;13.068;2023-09-30T00:46:18;101881.85;;;21.38;33.45
80414;BME280;69758;52.580;13.068;2023-09-30T00:48:38;101878.87;;;21.65;33.44
80414;BME280;69758;52.580;13.068;2023-09-30T00:51:03;101879.22;;;21.71;33.30
80414;BME280;69758;52.580;13.068;2023-09-30T00:53:28;101877.22;;;21.44;33.36
80414;BME280;69758;52.580;13.068;2023-09-30T00:55:53;101882.38;;;21.19;33.63
80414;BME280;69758;52.580;13.068;2023-09-30T00:58:18;101886.29;;;21.24;33.57
80414;BME280;69758;52.580;13.068;2023-09-30T01:00:52;101886.91;;;20.90;33.98
80414;BME280;69758;52.580;13.068;2023-09-30T01:03:10;101889.14;;;20.96;33.92
80414;BME280;69758;52.580;13.068;2023-09-30T01:05:34;101890.15;;;20.98;34.00
80414;BME280;69758;52.580;13.068;2023-09-30T01:08:01;101894.22;;;20.72;34.06
80414;BME280;69758;52.580;13.068;2023-09-30T01:10:38;101893.32;;;21.14;34.02
80414;BME280;69758;52.580;13.068;2023-09-30T01:12:49;101891.33;;;20.69;33.75
80414;BME280;69758;52.580;13.068;2023-09-30T01:15:14;101895.10;;;21.32;33.64
80414;BME280;69758;52.580;13.068;2023-09-30T01:17:39;101899.05;;;21.50;33.51
80414;BME280;69758;52.580;13.068;2023-09-30T01:20:06;101899.13;;;21.57;33.43
80414;BME280;69758;52.580;13.068;2023-09-30T01:22:30;101908.76;;;21.42;33.28
80414;BME280;69758;52.580;13.068;2023-09-30T01:24:55;101912.24;;;21.50;33.28
80414;BME280;69758;52.580;13.068;2023-09-30T01:27:37;101913.67;;;21.54;33.19
80414;BME280;69758;52.580;13.068;2023-09-30T01:29:45;101919.07;;;21.35;33.07
80414;BME280;69758;52.580;13.068;2023-09-30T01:32:10;101925.64;;;21.60;33.03
80414;BME280;69758;52.580;13.068;2023-09-30T01:34:36;101934.13;;;21.61;32.97
80414;BME280;69758;52.580;13.068;2023-09-30T01:37:01;101938.03;;;21.80;32.98
80414;BME280;69758;52.580;13.068;2023-09-30T01:39:26;101943.97;;;21.47;33.08
80414;BME280;69758;52.580;13.068;2023-09-30T01:41:51;101945.59;;;21.57;33.25
80414;BME280;69758;52.580;13.068;2023-09-30T01:44:16;101946.10;;;21.62;33.28
80414;BME280;69758;52.580;13.068;2023-09-30T01:46:41;101950.22;;;21.66;33.24
80414;BME280;69758;52.580;13.068;2023-09-30T01:49:07;101954.61;;;21.62;33.29
80414;BME280;69758;52.580;13.068;2023-09-30T01:51:32;101959.64;;;21.53;33.42
80414;BME280;69758;52.580;13.068;2023-09-30T01:53:57;101962.97;;;21.45;33.56
80414;BME280;69758;52.580;13.068;2023-09-30T01:56:23;101965.43;;;21.37;33.62
80414;BME280;69758;52.580;13.068;2023-09-30T01:58:48;101968.40;;;21.12;33.58
80414;BME280;69758;52.580;13.068;2023-09-30T02:01:14;101967.37;;;21.20;33.78
80414;BME280;69758;52.580;13.068;2023-09-30T02:03:39;101969.10;;;21.17;33.90
80414;BME280;69758;52.580;13.068;2023-09-30T02:06:04;101972.17;;;21.15;33.90
80414;BME280;69758;52.580;13.068;2023-09-30T02:08:29;101974.68;;;21.10;34.00
80414;BME280;69758;52.580;13.068;2023-09-30T02:10:54;101974.56;;;21.08;34.01
80414;BME280;69758;52.580;13.068;2023-09-30T02:13:20;101973.84;;;20.80;34.08
80414;BME280;69758;52.580;13.068;2023-09-30T02:15:44;101973.54;;;20.74;34.22
80414;BME280;69758;52.580;13.068;2023-09-30T02:18:10;101967.31;;;20.96;34.29
80414;BME280;69758;52.580;13.068;2023-09-30T02:20:35;101970.27;;;20.98;34.42
80414;BME280;69758;52.580;13.068;2023-09-30T02:23:00;101973.64;;;20.99;34.45
80414;BME280;69758;52.580;13.068;2023-09-30T02:25:25;101975.49;;;20.86;34.63
80414;BME280;69758;52.580;13.068;2023-09-30T02:27:50;101975.50;;;20.57;34.80
80414;BME280;69758;52.580;13.068;2023-09-30T02:30:16;101978.39;;;20.95;34.96
80414;BME280;69758;52.580;13.068;2023-09-30T02:32:41;101978.54;;;20.92;35.07
80414;BME280;69758;52.580;13.068;2023-09-30T02:35:07;101983.24;;;21.10;35.17
80414;BME280;69758;52.580;13.068;2023-09-30T02:37:32;101987.44;;;21.06;35.30
80414;BME280;69758;52.580;13.068;2023-09-30T02:39:56;101996.79;;;20.78;35.47
80414;BME280;69758;52.580;13.068;2023-09-30T02:42:21;102005.84;;;20.94;35.53
80414;BME280;69758;52.580;13.068;2023-09-30T02:44:47;102005.60;;;20.62;35.71
80414;BME280;69758;52.580;13.068;2023-09-30T02:47:12;102002.79;;;20.62;35.65
80414;BME280;69758;52.580;13.068;2023-09-30T02:49:37;102004.65;;;20.58;35.72
80414;BME280;69758;52.580;13.068;2023-09-30T02:52:02;102010.55;;;20.34;35.82
80414;BME280;69758;52.580;13.068;2023-09-30T02:54:27;102009.59;;;20.89;35.74
80414;BME280;69758;52.580;13.068;2023-09-30T02:56:53;102010.69;;;20.66;35.64
80414;BME280;69758;52.580;13.068;2023-09-30T02:59:18;102014.33;;;20.66;35.59
80414;BME280;69758;52.580;13.068;2023-09-30T03:01:43;102016.95;;;20.92;35.47
80414;BME280;69758;52.580;13.068;2023-09-30T03:04:08;102019.40;;;20.38;35.51
80414;BME280;69758;52.580;13.068;2023-09-30T03:06:33;102019.15;;;20.90;35.42
80414;BME280;69758;52.580;13.068;2023-09-30T03:08:58;102018.85;;;20.68;35.32
80414;BME280;69758;52.580;13.068;2023-09-30T03:11:24;102023.35;;;20.89;35.24
80414;BME280;69758;52.580;13.068;2023-09-30T03:13:49;102027.12;;;20.67;35.18
80414;BME280;69758;52.580;13.068;2023-09-30T03:16:15;102027.34;;;20.66;35.16
80414;BME280;69758;52.580;13.068;2023-09-30T03:18:40;102028.72;;;20.43;35.15
80414;BME280;69758;52.580;13.068;2023-09-30T03:21:13;102030.86;;;20.44;35.10
80414;BME280;69758;52.580;13.068;2023-09-30T03:23:30;102035.56;;;20.66;35.14
80414;BME280;69758;52.580;13.068;2023-09-30T03:25:56;102033.78;;;20.42;35.08
80414;BME280;69758;52.580;13.068;2023-09-30T03:28:20;102037.50;;;20.91;34.96
80414;BME280;69758;52.580;13.068;2023-09-30T03:30:46;102039.16;;;20.60;34.99
80414;BME280;69758;52.580;13.068;2023-09-30T03:33:11;102037.69;;;20.57;34.98
80414;BME280;69758;52.580;13.068;2023-09-30T03:35:36;102039.88;;;20.79;34.86
80414;BME280;69758;52.580;13.068;2023-09-30T03:38:01;102045.99;;;20.52;34.82
80414;BME280;69758;52.580;13.068;2023-09-30T03:40:26;102052.08;;;20.56;34.70
80414;BME280;69758;52.580;13.068;2023-09-30T03:42:52;102053.44;;;20.78;34.67
80414;BME280;69758;52.580;13.068;2023-09-30T03:45:17;102050.38;;;20.74;34.71
80414;BME280;69758;52.580;13.068;2023-09-30T03:47:42;102047.79;;;20.39;34.84
80414;BME280;69758;52.580;13.068;2023-09-30T03:50:08;102049.88;;;20.14;34.76
80414;BME280;69758;52.580;13.068;2023-09-30T03:52:34;102051.26;;;20.42;34.67
80414;BME280;69758;52.580;13.068;2023-09-30T03:54:57;102046.42;;;20.62;34.67
80414;BME280;69758;52.580;13.068;2023-09-30T03:57:22;102048.13;;;20.81;34.62
80414;BME280;69758;52.580;13.068;2023-09-30T03:59:48;102050.64;;;20.30;34.72
80414;BME280;69758;52.580;13.068;2023-09-30T04:02:13;102053.02;;;20.30;34.74
80414;BME280;69758;52.580;13.068;2023-09-30T04:04:38;102060.92;;;20.53;34.70
80414;BME280;69758;52.580;13.068;2023-09-30T04:07:03;102065.00;;;20.36;34.94
80414;BME280;69758;52.580;13.068;2023-09-30T04:09:29;102070.31;;;20.60;35.00
80414;BME280;69758;52.580;13.068;2023-09-30T04:11:54;102075.32;;;20.34;35.01
80414;BME280;69758;52.580;13.068;2023-09-30T04:14:19;102075.26;;;20.22;35.17
80414;BME280;69758;52.580;13.068;2023-09-30T04:16:44;102072.51;;;20.18;35.22
80414;BME280;69758;52.580;13.068;2023-09-30T04:19:09;102073.53;;;20.18;35.23
80414;BME280;69758;52.580;13.068;2023-09-30T04:21:34;102072.60;;;20.10;35.35
80414;BME280;69758;52.580;13.068;2023-09-30T04:24:00;102068.72;;;20.11;35.46
80414;BME280;69758;52.580;13.068;2023-09-30T04:26:25;102071.58;;;20.07;35.51
80414;BME280;69758;52.580;13.068;2023-09-30T04:28:51;102070.96;;;20.25;35.46
80414;BME280;69758;52.580;13.068;2023-09-30T04:31:15;102071.41;;;19.92;35.55
80414;BME280;69758;52.580;13.068;2023-09-30T04:33:40;102076.63;;;19.92;35.51
80414;BME280;69758;52.580;13.068;2023-09-30T04:36:06;102072.04;;;20.05;35.68
80414;BME280;69758;52.580;13.068;2023-09-30T04:38:31;102067.55;;;19.86;35.57
80414;BME280;69758;52.580;13.068;2023-09-30T04:40:56;102057.29;;;19.93;35.44
80414;BME280;69758;52.580;13.068;2023-09-30T04:43:21;102060.17;;;19.92;35.44
80414;BME280;69758;52.580;13.068;2023-09-30T04:45:47;102073.30;;;19.90;35.43
80414;BME280;69758;52.580;13.068;2023-09-30T04:48:13;102068.40;;;20.19;35.26
80414;BME280;69758;52.580;13.068;2023-09-30T04:50:39;102070.02;;;19.97;35.17
80414;BME280;69758;52.580;13.068;2023-09-30T04:53:04;102074.74;;;20.03;35.05
80414;BME280;69758;52.580;13.068;2023-09-30T04:55:29;102079.72;;;20.06;35.01
80414;BME280;69758;52.580;13.068;2023-09-30T04:57:54;102083.06;;;20.07;34.91
80414;BME280;69758;52.580;13.068;2023-09-30T05:00:20;102087.87;;;20.10;34.78
80414;BME280;69758;52.580;13.068;2023-09-30T05:02:45;102090.34;;;19.99;34.92
80414;BME280;69758;52.580;13.068;2023-09-30T05:05:10;102095.44;;;20.08;35.12
80414;BME280;69758;52.580;13.068;2023-09-30T05:07:35;102093.06;;;19.81;35.22
80414;BME280;69758;52.580;13.068;2023-09-30T05:10:00;102088.11;;;19.99;35.26
80414;BME280;69758;52.580;13.068;2023-09-30T05:12:25;102085.32;;;19.71;35.28
80414;BME280;69758;52.580;13.068;2023-09-30T05:14:50;102085.42;;;19.95;35.29
80414;BME280;69758;52.580;13.068;2023-09-30T05:17:16;102090.70;;;19.72;35.30
80414;BME280;69758;52.580;13.068;2023-09-30T05:19:41;102097.45;;;19.71;35.27
80414;BME280;69758;52.580;13.068;2023-09-30T05:22:06;102104.69;;;19.71;35.25
80414;BME280;69758;52.580;13.068;2023-09-30T05:24:31;102107.40;;;19.94;35.25
80414;BME280;69758;52.580;13.068;2023-09-30T05:26:56;102114.49;;;19.72;35.24
80414;BME280;69758;52.580;13.068;2023-09-30T05:29:22;102118.08;;;19.71;35.27
80414;BME280;69758;52.580;13.068;2023-09-30T05:31:47;102120.82;;;19.67;35.30
80414;BME280;69758;52.580;13.068;2023-09-30T05:34:12;102121.89;;;20.12;35.41
80414;BME280;69758;52.580;13.068;2023-09-30T05:36:38;102121.34;;;19.69;35.32
80414;BME280;69758;52.580;13.068;2023-09-30T05:39:03;102117.22;;;19.93;35.36
80414;BME280;69758;52.580;13.068;2023-09-30T05:41:28;102123.32;;;20.17;35.46
80414;BME280;69758;52.580;13.068;2023-09-30T05:43:53;102138.35;;;19.66;35.55
80414;BME280;69758;52.580;13.068;2023-09-30T05:46:19;102146.44;;;19.80;35.75
80414;BME280;69758;52.580;13.068;2023-09-30T05:48:44;102142.76;;;20.05;35.88
80414;BME280;69758;52.580;13.068;2023-09-30T05:51:09;102140.02;;;19.84;35.92
80414;BME280;69758;52.580;13.068;2023-09-30T05:53:34;102143.75;;;19.82;36.00
80414;BME280;69758;52.580;13.068;2023-09-30T05:56:01;102144.85;;;19.71;36.28
80414;BME280;69758;52.580;13.068;2023-09-30T05:58:25;102143.72;;;19.43;36.42
80414;BME280;69758;52.580;13.068;2023-09-30T06:00:50;102146.26;;;19.53;36.38
80414;BME280;69758;52.580;13.068;2023-09-30T06:03:15;102149.26;;;19.41;36.51
80414;BME280;69758;52.580;13.068;2023-09-30T06:05:41;102154.10;;;19.45;36.58
80414;BME280;69758;52.580;13.068;2023-09-30T06:08:07;102160.19;;;19.73;36.61
80414;BME280;69758;52.580;13.068;2023-09-30T06:10:31;102160.53;;;19.56;36.68
80414;BME280;69758;52.580;13.068;2023-09-30T06:12:57;102166.45;;;19.91;36.60
80414;BME280;69758;52.580;13.068;2023-09-30T06:15:22;102167.80;;;19.74;36.45
80414;BME280;69758;52.580;13.068;2023-09-30T06:17:47;102167.52;;;19.80;36.35
80414;BME280;69758;52.580;13.068;2023-09-30T06:20:12;102171.13;;;20.02;36.31
80414;BME280;69758;52.580;13.068;2023-09-30T06:22:37;102169.10;;;20.10;36.20
80414;BME280;69758;52.580;13.068;2023-09-30T06:25:02;102171.64;;;20.04;36.23
80414;BME280;69758;52.580;13.068;2023-09-30T06:27:27;102172.69;;;19.86;36.37
80414;BME280;69758;52.580;13.068;2023-09-30T06:29:53;102182.44;;;19.67;36.39
80414;BME280;69758;52.580;13.068;2023-09-30T06:32:18;102183.39;;;19.95;36.34
80414;BME280;69758;52.580;13.068;2023-09-30T06:34:43;102185.39;;;19.91;36.40
80414;BME280;69758;52.580;13.068;2023-09-30T06:37:09;102183.52;;;19.89;36.44
80414;BME280;69758;52.580;13.068;2023-09-30T06:39:33;102181.34;;;20.02;36.38
80414;BME280;69758;52.580;13.068;2023-09-30T06:41:59;102179.01;;;20.07;36.42
80414;BME280;69758;52.580;13.068;2023-09-30T06:44:24;102181.72;;;20.07;36.51
80414;BME280;69758;52.580;13.068;2023-09-30T06:46:49;102184.95;;;19.77;36.53
80414;BME280;69758;52.580;13.068;2023-09-30T06:49:14;102187.38;;;20.07;36.45
80414;BME280;69758;52.580;13.068;2023-09-30T06:51:39;102185.91;;;20.07;36.42
80414;BME280;69758;52.580;13.068;2023-09-30T06:54:05;102194.42;;;19.88;36.47
80414;BME280;69758;52.580;13.068;2023-09-30T06:56:30;102197.04;;;19.88;36.55
80414;BME280;69758;52.580;13.068;2023-09-30T06:58:55;102196.95;;;19.69;36.77
80414;BME280;69758;52.580;13.068;2023-09-30T07:01:20;102206.54;;;19.77;36.83
80414;BME280;69758;52.580;13.068;2023-09-30T07:03:46;102207.28;;;19.75;36.89
80414;BME280;69758;52.580;13.068;2023-09-30T07:06:11;102212.04;;;19.88;36.81
80414;BME280;69758;52.580;13.068;2023-09-30T07:08:36;102210.19;;;20.26;36.71
80414;BME280;69758;52.580;13.068;2023-09-30T07:11:01;102217.73;;;20.13;36.57
80414;BME280;69758;52.580;13.068;2023-09-30T07:13:27;102222.87;;;20.12;36.46
80414;BME280;69758;52.580;13.068;2023-09-30T07:15:52;102223.81;;;20.14;36.56
80414;BME280;69758;52.580;13.068;2023-09-30T07:18:17;102226.73;;;20.49;36.59
80414;BME280;69758;52.580;13.068;2023-09-30T07:20:43;102222.39;;;20.09;36.54
80414;BME280;69758;52.580;13.068;2023-09-30T07:23:08;102224.14;;;20.02;36.65
80414;BME280;69758;52.580;13.068;2023-09-30T07:25:33;102231.44;;;20.20;36.42
80414;BME280;69758;52.580;13.068;2023-09-30T07:27:58;102235.75;;;20.13;36.58
80414;BME280;69758;52.580;13.068;2023-09-30T07:30:24;102242.64;;;20.17;36.53
80414;BME280;69758;52.580;13.068;2023-09-30T07:32:48;102247.30;;;20.06;36.40
80414;BME280;69758;52.580;13.068;2023-09-30T07:35:14;102251.92;;;20.32;36.35
80414;BME280;69758;52.580;13.068;2023-09-30T07:37:39;102252.30;;;20.48;36.24
80414;BME280;69758;52.580;13.068;2023-09-30T07:40:05;102255.29;;;20.32;36.21
80414;BME280;69758;52.580;13.068;2023-09-30T07:42:29;102253.27;;;20.50;36.23
80414;BME280;69758;52.580;13.068;2023-09-30T07:44:54;102260.97;;;20.51;36.15
80414;BME280;69758;52.580;13.068;2023-09-30T07:47:19;102262.98;;;20.43;36.02
80414;BME280;69758;52.580;13.068;2023-09-30T07:49:45;102265.86;;;20.34;35.98
80414;BME280;69758;52.580;13.068;2023-09-30T07:52:10;102266.52;;;20.73;36.10
80414;BME280;69758;52.580;13.068;2023-09-30T07:54:35;102271.93;;;20.79;36.03
80414;BME280;69758;52.580;13.068;2023-09-30T07:57:01;102270.54;;;20.59;36.03
80414;BME280;69758;52.580;13.068;2023-09-30T07:59:26;102271.83;;;20.57;36.02
80414;BME280;69758;52.580;13.068;2023-09-30T08:01:51;102273.40;;;20.60;35.98
80414;BME280;69758;52.580;13.068;2023-09-30T08:04:16;102275.44;;;20.40;36.12
80414;BME280;69758;52.580;13.068;2023-09-30T08:06:41;102278.37;;;20.93;36.08
80414;BME280;69758;52.580;13.068;2023-09-30T08:09:06;102280.84;;;20.33;36.02
80414;BME280;69758;52.580;13.068;2023-09-30T08:11:32;102281.45;;;20.47;36.04
80414;BME280;69758;52.580;13.068;2023-09-30T08:13:57;102281.16;;;20.50;36.02
80414;BME280;69758;52.580;13.068;2023-09-30T08:16:22;102281.48;;;20.68;36.11
80414;BME280;69758;52.580;13.068;2023-09-30T08:18:48;102279.08;;;20.33;36.10
80414;BME280;69758;52.580;13.068;2023-09-30T08:21:13;102280.08;;;20.61;36.04
80414;BME280;69758;52.580;13.068;2023-09-30T08:23:38;102287.31;;;20.89;36.04
80414;BME280;69758;52.580;13.068;2023-09-30T08:26:03;102287.49;;;20.63;36.03
80414;BME280;69758;52.580;13.068;2023-09-30T08:28:28;102286.54;;;20.85;35.88
80414;BME280;69758;52.580;13.068;2023-09-30T08:30:53;102289.98;;;20.90;35.86
80414;BME280;69758;52.580;13.068;2023-09-30T08:33:19;102289.30;;;20.72;35.56
80414;BME280;69758;52.580;13.068;2023-09-30T08:35:44;102283.94;;;20.90;35.62
80414;BME280;69758;52.580;13.068;2023-09-30T08:38:09;102285.17;;;20.83;35.52
80414;BME280;69758;52.580;13.068;2023-09-30T08:40:34;102282.04;;;20.96;35.94
80414;BME280;69758;52.580;13.068;2023-09-30T08:42:59;102280.54;;;20.86;35.64
80414;BME280;69758;52.580;13.068;2023-09-30T08:45:27;102279.92;;;20.98;35.57
80414;BME280;69758;52.580;13.068;2023-09-30T08:47:50;102282.14;;;20.93;35.64
80414;BME280;69758;52.580;13.068;2023-09-30T08:50:16;102281.37;;;21.10;35.57
80414;BME280;69758;52.580;13.068;2023-09-30T08:52:41;102284.15;;;20.80;35.82
80414;BME280;69758;52.580;13.068;2023-09-30T08:55:06;102285.94;;;20.76;35.59
80414;BME280;69758;52.580;13.068;2023-09-30T08:57:30;102287.60;;;20.94;35.54
80414;BME280;69758;52.580;13.068;2023-09-30T08:59:55;102290.69;;;20.76;35.38
80414;BME280;69758;52.580;13.068;2023-09-30T09:02:20;102290.59;;;20.57;35.89
80414;BME280;69758;52.580;13.068;2023-09-30T09:04:46;102286.95;;;20.69;35.69
80414;BME280;69758;52.580;13.068;2023-09-30T09:07:11;102283.95;;;20.75;35.98
80414;BME280;69758;52.580;13.068;2023-09-30T09:09:36;102281.31;;;20.77;35.85
80414;BME280;69758;52.580;13.068;2023-09-30T09:12:02;102282.02;;;20.95;35.87
80414;BME280;69758;52.580;13.068;2023-09-30T09:14:37;102283.06;;;20.91;35.52
80414;BME280;69758;52.580;13.068;2023-09-30T09:16:53;102279.07;;;20.74;35.81
80414;BME280;69758;52.580;13.068;2023-09-30T09:19:17;102278.98;;;21.13;35.88
80414;BME280;69758;52.580;13.068;2023-09-30T09:21:54;102284.20;;;20.85;35.93
80414;BME280;69758;52.580;13.068;2023-09-30T09:24:07;102289.56;;;20.93;35.96
80414;BME280;69758;52.580;13.068;2023-09-30T09:26:32;102289.13;;;21.11;35.78
80414;BME280;69758;52.580;13.068;2023-09-30T09:28:58;102292.86;;;21.22;35.19
80414;BME280;69758;52.580;13.068;2023-09-30T09:31:25;102292.75;;;20.96;35.04
80414;BME280;69758;52.580;13.068;2023-09-30T09:33:48;102293.56;;;21.26;35.17
80414;BME280;69758;52.580;13.068;2023-09-30T09:36:14;102291.62;;;21.26;35.86
80414;BME280;69758;52.580;13.068;2023-09-30T09:38:43;102297.08;;;21.38;35.44
80414;BME280;69758;52.580;13.068;2023-09-30T09:41:03;102295.28;;;21.44;35.35
80414;BME280;69758;52.580;13.068;2023-09-30T09:43:31;102296.58;;;21.63;35.13
80414;BME280;69758;52.580;13.068;2023-09-30T09:45:55;102295.36;;;21.98;34.72
80414;BME280;69758;52.580;13.068;2023-09-30T09:48:19;102298.93;;;22.09;34.38
80414;BME280;69758;52.580;13.068;2023-09-30T09:50:44;102295.91;;;21.57;34.58
80414;BME280;69758;52.580;13.068;2023-09-30T09:53:09;102293.44;;;21.57;34.68
80414;BME280;69758;52.580;13.068;2023-09-30T09:55:36;102296.72;;;21.93;34.28
80414;BME280;69758;52.580;13.068;2023-09-30T09:58:02;102289.97;;;21.95;34.20
80414;BME280;69758;52.580;13.068;2023-09-30T10:00:26;102289.79;;;21.65;34.05
80414;BME280;69758;52.580;13.068;2023-09-30T10:02:50;102286.80;;;21.98;34.20
80414;BME280;69758;52.580;13.068;2023-09-30T10:05:16;102294.35;;;21.94;33.65
80414;BME280;69758;52.580;13.068;2023-09-30T10:07:44;102295.01;;;21.92;33.57
80414;BME280;69758;52.580;13.068;2023-09-30T10:10:10;102284.36;;;21.55;33.73
80414;BME280;69758;52.580;13.068;2023-09-30T10:12:36;102283.80;;;22.01;33.79
80414;BME280;69758;52.580;13.068;2023-09-30T10:14:55;102281.75;;;22.25;33.99
80414;BME280;69758;52.580;13.068;2023-09-30T10:17:20;102287.95;;;22.48;33.88
80414;BME280;69758;52.580;13.068;2023-09-30T10:22:20;102291.98;;;22.57;33.22
80414;BME280;69758;52.580;13.068;2023-09-30T10:24:35;102288.84;;;22.40;33.18
80414;BME280;69758;52.580;13.068;2023-09-30T10:29:39;102285.66;;;22.46;32.52
80414;BME280;69758;52.580;13.068;2023-09-30T10:31:51;102282.61;;;22.28;32.69
80414;BME280;69758;52.580;13.068;2023-09-30T10:34:21;102286.29;;;22.94;32.25
80414;BME280;69758;52.580;13.068;2023-09-30T10:36:41;102283.45;;;23.04;32.53
80414;BME280;69758;52.580;13.068;2023-09-30T10:39:11;102279.90;;;23.13;32.05
80414;BME280;69758;52.580;13.068;2023-09-30T10:43:57;102283.52;;;22.97;31.29
80414;BME280;69758;52.580;13.068;2023-09-30T10:46:30;102286.76;;;22.77;30.60
80414;BME280;69758;52.580;13.068;2023-09-30T10:48:47;102289.01;;;22.52;31.53
80414;BME280;69758;52.580;13.068;2023-09-30T10:51:14;102288.10;;;22.84;31.56
80414;BME280;69758;52.580;13.068;2023-09-30T10:53:45;102285.58;;;23.12;31.06
80414;BME280;69758;52.580;13.068;2023-09-30T10:56:02;102284.56;;;23.38;30.61
80414;BME280;69758;52.580;13.068;2023-09-30T10:58:39;102283.68;;;23.32;29.83
80414;BME280;69758;52.580;13.068;2023-09-30T11:00:53;102278.83;;;23.30;30.54
80414;BME280;69758;52.580;13.068;2023-09-30T11:03:19;102286.82;;;22.32;30.48
80414;BME280;69758;52.580;13.068;2023-09-30T11:05:47;102285.08;;;22.81;30.71
80414;BME280;69758;52.580;13.068;2023-09-30T11:08:08;102282.27;;;23.14;30.15
80414;BME280;69758;52.580;13.068;2023-09-30T11:10:33;102277.98;;;23.31;29.71
80414;BME280;69758;52.580;13.068;2023-09-30T11:12:58;102276.93;;;22.98;29.80
80414;BME280;69758;52.580;13.068;2023-09-30T11:15:23;102280.92;;;23.16;30.30
80414;BME280;69758;52.580;13.068;2023-09-30T11:17:48;102275.13;;;23.35;29.93
80414;BME280;69758;52.580;13.068;2023-09-30T11:20:14;102273.22;;;23.58;29.52
80414;BME280;69758;52.580;13.068;2023-09-30T11:22:39;102275.31;;;23.82;29.25
80414;BME280;69758;52.580;13.068;2023-09-30T11:25:04;102277.96;;;24.03;28.62
80414;BME280;69758;52.580;13.068;2023-09-30T11:27:28;102270.36;;;23.90;28.34
80414;BME280;69758;52.580;13.068;2023-09-30T11:29:54;102271.23;;;23.91;27.46
80414;BME280;69758;52.580;13.068;2023-09-30T11:32:24;102266.77;;;23.82;28.43
80414;BME280;69758;52.580;13.068;2023-09-30T11:34:44;102262.72;;;23.89;27.91
80414;BME280;69758;52.580;13.068;2023-09-30T11:37:09;102258.45;;;23.20;27.08
80414;BME280;69758;52.580;13.068;2023-09-30T11:39:34;102258.52;;;23.69;27.47
80414;BME280;69758;52.580;13.068;2023-09-30T11:42:00;102249.02;;;23.49;27.11
80414;BME280;69758;52.580;13.068;2023-09-30T11:44:24;102244.28;;;23.95;27.27
80414;BME280;69758;52.580;13.068;2023-09-30T11:46:50;102244.86;;;23.87;27.49
80414;BME280;69758;52.580;13.068;2023-09-30T11:49:25;102238.86;;;24.06;27.20
80414;BME280;69758;52.580;13.068;2023-09-30T11:51:43;102244.28;;;24.08;27.47
80414;BME280;69758;52.580;13.068;2023-09-30T11:54:04;102244.16;;;23.99;26.64
80414;BME280;69758;52.580;13.068;2023-09-30T11:56:29;102248.65;;;23.83;26.35
80414;BME280;69758;52.580;13.068;2023-09-30T11:58:55;102239.08;;;24.03;27.09
80414;BME280;69758;52.580;13.068;2023-09-30T12:01:20;102235.05;;;24.39;26.47
80414;BME280;69758;52.580;13.068;2023-09-30T12:03:45;102238.92;;;24.15;26.10
80414;BME280;69758;52.580;13.068;2023-09-30T12:06:09;102240.50;;;24.63;26.25
80414;BME280;69758;52.580;13.068;2023-09-30T12:08:34;102241.58;;;24.09;25.82
80414;BME280;69758;52.580;13.068;2023-09-30T12:11:00;102242.22;;;24.16;25.79
80414;BME280;69758;52.580;13.068;2023-09-30T12:13:25;102245.94;;;24.72;25.31
80414;BME280;69758;52.580;13.068;2023-09-30T12:15:50;102244.49;;;24.69;25.06
80414;BME280;69758;52.580;13.068;2023-09-30T12:18:15;102232.03;;;24.44;25.97
80414;BME280;69758;52.580;13.068;2023-09-30T12:20:40;102235.62;;;24.56;26.06
80414;BME280;69758;52.580;13.068;2023-09-30T12:23:05;102233.83;;;24.79;24.69
80414;BME280;69758;52.580;13.068;2023-09-30T12:25:30;102242.78;;;24.73;25.02
80414;BME280;69758;52.580;13.068;2023-09-30T12:27:55;102238.52;;;24.27;25.31
80414;BME280;69758;52.580;13.068;2023-09-30T12:30:21;102239.07;;;24.82;25.29
80414;BME280;69758;52.580;13.068;2023-09-30T12:32:46;102228.51;;;24.07;25.53
80414;BME280;69758;52.580;13.068;2023-09-30T12:35:11;102227.64;;;23.98;25.13